createdAt,value
2023-02-11T00:02:14.167Z,2.50
2023-02-11T00:04:40.899Z,2.50
2023-02-11T00:07:07.675Z,2.50
2023-02-11T00:09:34.402Z,2.50
2023-02-11T00:12:01.082Z,2.40
2023-02-11T00:14:27.826Z,2.40
2023-02-11T00:16:54.603Z,2.50
2023-02-11T00:19:21.329Z,2.40
2023-02-11T00:21:48.089Z,2.40
2023-02-11T00:24:14.781Z,2.50
2023-02-11T00:26:41.596Z,2.40
2023-02-11T00:29:08.320Z,2.50
2023-02-11T00:31:35.389Z,2.50
2023-02-11T00:34:02.281Z,2.50
2023-02-11T00:36:29.219Z,2.50
2023-02-11T00:38:56.772Z,2.50
2023-02-11T00:41:23.726Z,2.50
2023-02-11T00:43:50.592Z,2.50
2023-02-11T00:46:17.536Z,2.60
2023-02-11T00:48:44.401Z,2.60
2023-02-11T00:51:11.172Z,2.60
2023-02-11T00:53:38.049Z,2.50
2023-02-11T00:56:05.024Z,2.60
2023-02-11T00:58:31.827Z,2.60
2023-02-11T01:00:58.679Z,2.60
2023-02-11T01:03:25.485Z,2.60
2023-02-11T01:05:52.696Z,2.60
2023-02-11T01:08:19.779Z,2.60
2023-02-11T01:10:53.384Z,2.60
2023-02-11T01:13:20.100Z,2.60
2023-02-11T01:15:46.869Z,2.60
2023-02-11T01:18:13.615Z,2.70
2023-02-11T01:20:40.375Z,2.70
2023-02-11T01:23:07.116Z,2.70
2023-02-11T01:25:33.850Z,2.70
2023-02-11T01:28:00.688Z,2.80
2023-02-11T01:30:27.464Z,2.80
2023-02-11T01:32:54.244Z,2.80
2023-02-11T01:35:21.005Z,2.90
2023-02-11T01:37:47.729Z,2.90
2023-02-11T01:40:16.234Z,3.00
2023-02-11T01:42:43.475Z,3.00
2023-02-11T01:45:28.906Z,3.00
2023-02-11T01:47:55.662Z,2.90
2023-02-11T01:50:22.446Z,2.90
2023-02-11T01:52:49.486Z,2.90
2023-02-11T01:55:34.903Z,2.90
2023-02-11T01:58:04.916Z,2.90
2023-02-11T02:00:36.316Z,2.80
2023-02-11T02:03:08.230Z,2.90
2023-02-11T02:05:48.731Z,2.80
2023-02-11T02:08:23.166Z,2.80
2023-02-11T02:10:53.926Z,2.80
2023-02-11T02:13:21.077Z,2.80
2023-02-11T02:15:52.071Z,2.80
2023-02-11T02:18:38.798Z,2.80
2023-02-11T02:21:24.310Z,2.80
2023-02-11T02:24:12.537Z,2.80
2023-02-11T02:26:59.017Z,2.80
2023-02-11T02:29:34.780Z,2.80
2023-02-11T02:32:20.374Z,2.90
2023-02-11T02:34:53.082Z,2.90
2023-02-11T02:37:24.560Z,2.90
2023-02-11T02:39:51.290Z,2.90
2023-02-11T02:42:19.556Z,2.90
2023-02-11T02:44:53.194Z,2.90
2023-02-11T02:47:19.922Z,2.90
2023-02-11T02:49:46.715Z,3.00
2023-02-11T02:52:16.609Z,2.90
2023-02-11T02:54:49.347Z,3.00
2023-02-11T02:57:16.009Z,3.00
2023-02-11T03:00:01.592Z,3.00
2023-02-11T03:02:33.727Z,3.10
2023-02-11T03:05:06.602Z,3.00
2023-02-11T03:07:52.143Z,3.10
2023-02-11T03:10:25.176Z,3.10
2023-02-11T03:12:52.842Z,3.10
2023-02-11T03:15:21.132Z,3.10
2023-02-11T03:17:48.844Z,3.10
2023-02-11T03:20:17.246Z,3.10
2023-02-11T03:23:07.273Z,3.10
2023-02-11T03:25:55.656Z,3.20
2023-02-11T03:28:31.690Z,3.10
2023-02-11T03:31:12.549Z,3.10
2023-02-11T03:33:53.205Z,3.10
2023-02-11T03:36:24.158Z,3.20
2023-02-11T03:38:53.981Z,3.10
2023-02-11T03:41:22.609Z,3.10
2023-02-11T03:43:51.429Z,3.10
2023-02-11T03:46:19.586Z,3.10
2023-02-11T03:48:52.276Z,3.10
2023-02-11T03:51:20.678Z,3.00
2023-02-11T03:53:47.811Z,3.10
2023-02-11T03:56:19.454Z,3.10
2023-02-11T03:58:46.341Z,3.10
2023-02-11T04:01:13.199Z,3.00
2023-02-11T04:03:40.295Z,3.00
2023-02-11T04:06:07.557Z,3.00
2023-02-11T04:08:34.336Z,3.00
2023-02-11T04:11:01.064Z,3.00
2023-02-11T04:13:27.843Z,2.90
2023-02-11T04:15:54.877Z,3.00
2023-02-11T04:18:21.768Z,2.90
2023-02-11T04:20:50.346Z,3.00
2023-02-11T04:23:17.102Z,2.90
2023-02-11T04:25:43.874Z,3.00
2023-02-11T04:28:10.652Z,2.90
2023-02-11T04:30:37.338Z,3.00
2023-02-11T04:33:04.167Z,2.90
2023-02-11T04:35:30.872Z,2.90
2023-02-11T04:37:57.628Z,2.90
2023-02-11T04:40:24.313Z,2.90
2023-02-11T04:42:51.014Z,2.90
2023-02-11T04:45:17.794Z,2.90
2023-02-11T04:47:44.578Z,2.90
2023-02-11T04:50:11.316Z,2.90
2023-02-11T04:52:38.059Z,2.90
2023-02-11T04:55:04.898Z,3.00
2023-02-11T04:57:31.694Z,3.00
2023-02-11T04:59:58.421Z,3.00
2023-02-11T05:02:25.147Z,3.00
2023-02-11T05:04:51.867Z,3.00
2023-02-11T05:07:18.725Z,3.10
2023-02-11T05:09:45.470Z,3.10
2023-02-11T05:12:12.334Z,3.10
2023-02-11T05:14:39.120Z,3.10
2023-02-11T05:17:05.789Z,3.10
2023-02-11T05:19:32.656Z,3.10
2023-02-11T05:22:03.195Z,3.20
2023-02-11T05:24:31.819Z,3.20
2023-02-11T05:26:58.616Z,3.20
2023-02-11T05:29:25.328Z,3.20
2023-02-11T05:31:52.583Z,3.20
2023-02-11T05:34:19.358Z,3.20
2023-02-11T05:36:46.118Z,3.20
2023-02-11T05:39:12.863Z,3.20
2023-02-11T05:41:39.583Z,3.20
2023-02-11T05:44:06.294Z,3.30
2023-02-11T05:46:33.086Z,3.30
2023-02-11T05:48:59.895Z,3.30
2023-02-11T05:51:26.640Z,3.30
2023-02-11T05:53:53.501Z,3.40
2023-02-11T05:56:20.330Z,3.40
2023-02-11T05:58:47.056Z,3.40
2023-02-11T06:01:13.796Z,3.40
2023-02-11T06:03:40.567Z,3.40
2023-02-11T06:06:11.577Z,3.40
2023-02-11T06:08:39.402Z,3.50
2023-02-11T06:11:06.378Z,3.50
2023-02-11T06:13:33.151Z,3.50
2023-02-11T06:16:00.411Z,3.50
2023-02-11T06:18:27.265Z,3.60
2023-02-11T06:20:54.051Z,3.60
2023-02-11T06:23:21.381Z,3.60
2023-02-11T06:25:48.168Z,3.60
2023-02-11T06:28:15.108Z,3.60
2023-02-11T06:30:41.944Z,3.60
2023-02-11T06:33:08.705Z,3.60
2023-02-11T06:35:36.677Z,3.70
2023-02-11T06:38:03.453Z,3.70
2023-02-11T06:40:30.243Z,3.70
2023-02-11T06:42:56.966Z,3.70
2023-02-11T06:45:23.671Z,3.80
2023-02-11T06:47:51.799Z,3.70
2023-02-11T06:50:18.859Z,3.80
2023-02-11T06:52:45.586Z,3.80
2023-02-11T06:55:12.351Z,3.80
2023-02-11T06:57:39.071Z,3.80
2023-02-11T07:00:06.167Z,3.90
2023-02-11T07:02:32.903Z,3.90
2023-02-11T07:04:59.717Z,3.90
2023-02-11T07:07:27.283Z,3.90
2023-02-11T07:09:54.049Z,3.90
2023-02-11T07:12:20.786Z,4.00
2023-02-11T07:14:47.492Z,4.00
2023-02-11T07:17:14.228Z,4.00
2023-02-11T07:19:40.981Z,4.00
2023-02-11T07:22:07.727Z,4.00
2023-02-11T07:24:34.428Z,4.10
2023-02-11T07:27:01.136Z,4.10
2023-02-11T07:29:27.866Z,4.10
2023-02-11T07:31:54.626Z,4.10
2023-02-11T07:34:21.399Z,4.10
2023-02-11T07:36:49.105Z,4.20
2023-02-11T07:39:16.227Z,4.20
2023-02-11T07:41:47.748Z,4.20
2023-02-11T07:44:14.586Z,4.30
2023-02-11T07:46:45.353Z,4.30
2023-02-11T07:49:12.591Z,4.30
2023-02-11T07:51:39.301Z,4.30
2023-02-11T07:54:06.095Z,4.30
2023-02-11T07:56:32.760Z,4.40
2023-02-11T07:59:01.078Z,4.40
2023-02-11T08:01:28.775Z,4.40
2023-02-11T08:03:56.487Z,4.40
2023-02-11T08:06:24.369Z,4.40
2023-02-11T08:08:51.114Z,4.50
2023-02-11T08:11:25.151Z,4.50
2023-02-11T08:13:52.085Z,4.60
2023-02-11T08:16:20.554Z,4.60
2023-02-11T08:18:47.758Z,4.70
2023-02-11T08:21:14.506Z,4.70
2023-02-11T08:23:41.871Z,4.70
2023-02-11T08:26:13.436Z,4.80
2023-02-11T08:28:40.782Z,4.80
2023-02-11T08:31:12.232Z,4.90
2023-02-11T08:33:40.434Z,4.90
2023-02-11T08:36:10.047Z,5.00
2023-02-11T08:38:36.871Z,5.00
2023-02-11T08:41:03.764Z,5.00
2023-02-11T08:43:30.491Z,5.10
2023-02-11T08:45:57.885Z,5.10
2023-02-11T08:48:25.824Z,5.10
2023-02-11T08:50:52.545Z,5.20
2023-02-11T08:53:19.238Z,5.20
2023-02-11T08:55:53.024Z,5.30
2023-02-11T08:58:20.102Z,5.30
2023-02-11T09:00:47.480Z,5.40
2023-02-11T09:03:14.565Z,5.30
2023-02-11T09:05:44.949Z,5.30
2023-02-11T09:08:12.076Z,5.30
2023-02-11T09:10:39.042Z,5.30
2023-02-11T09:13:06.532Z,5.30
2023-02-11T09:15:33.525Z,5.30
2023-02-11T09:18:00.574Z,5.30
2023-02-11T09:20:27.971Z,5.30
2023-02-11T09:22:55.256Z,5.50
2023-02-11T09:25:21.993Z,5.50
2023-02-11T09:27:48.753Z,5.60
2023-02-11T09:30:15.500Z,5.50
2023-02-11T09:32:42.523Z,5.50
2023-02-11T09:35:09.236Z,5.50
2023-02-11T09:37:37.432Z,5.60
2023-02-11T09:40:04.695Z,5.60
2023-02-11T09:42:44.047Z,5.50
2023-02-11T09:45:15.918Z,5.70
2023-02-11T09:47:46.879Z,5.70
2023-02-11T09:50:15.704Z,5.70
2023-02-11T09:52:42.383Z,5.70
2023-02-11T09:55:18.793Z,5.70
2023-02-11T09:57:45.532Z,5.70
2023-02-11T10:00:23.540Z,5.70
2023-02-11T10:02:55.998Z,5.70
2023-02-11T10:05:32.678Z,5.80
2023-02-11T10:07:59.399Z,5.70
2023-02-11T10:10:38.215Z,5.80
2023-02-11T10:13:04.998Z,5.60
2023-02-11T10:15:43.160Z,5.60
2023-02-11T10:18:28.483Z,5.60
2023-02-11T10:21:02.740Z,5.70
2023-02-11T10:23:31.336Z,5.70
2023-02-11T10:25:59.039Z,5.50
2023-02-11T10:28:35.864Z,5.40
2023-02-11T10:31:03.550Z,5.30
2023-02-11T10:33:33.134Z,5.20
2023-02-11T10:36:00.364Z,5.20
2023-02-11T10:38:27.817Z,5.10
2023-02-11T10:40:54.546Z,5.20
2023-02-11T10:43:23.714Z,5.10
2023-02-11T10:45:51.734Z,5.10
2023-02-11T10:48:36.606Z,5.10
2023-02-11T10:51:23.598Z,5.00
2023-02-11T10:54:13.825Z,4.90
2023-02-11T10:56:50.275Z,4.90
2023-02-11T10:59:21.619Z,4.80
2023-02-11T11:01:53.612Z,4.80
2023-02-11T11:04:38.892Z,4.80
2023-02-11T11:07:14.553Z,4.60
2023-02-11T11:10:04.371Z,4.60
2023-02-11T11:12:46.409Z,4.60
2023-02-11T11:15:19.955Z,4.70
2023-02-11T11:17:46.793Z,4.50
2023-02-11T11:20:22.041Z,4.40
2023-02-11T11:22:49.997Z,4.30
2023-02-11T11:25:24.468Z,4.40
2023-02-11T11:27:53.169Z,4.40
2023-02-11T11:30:20.152Z,4.50
2023-02-11T11:32:47.083Z,4.60
2023-02-11T11:35:27.901Z,4.50
2023-02-11T11:38:05.253Z,4.60
2023-02-11T11:40:33.158Z,4.50
2023-02-11T11:43:23.041Z,4.50
2023-02-11T11:45:56.106Z,4.50
2023-02-11T11:48:26.418Z,4.50
2023-02-11T11:50:54.920Z,4.50
2023-02-11T11:53:24.752Z,4.40
2023-02-11T11:56:09.656Z,4.40
2023-02-11T11:58:36.382Z,4.30
2023-02-11T12:01:15.714Z,4.30
2023-02-11T12:03:57.862Z,4.30
2023-02-11T12:06:37.484Z,4.30
2023-02-11T12:09:24.434Z,4.20
2023-02-11T12:12:15.224Z,4.20
2023-02-11T12:14:52.166Z,4.00
2023-02-11T12:17:28.381Z,3.90
2023-02-11T12:20:05.445Z,3.80
2023-02-11T12:22:38.380Z,3.80
2023-02-11T12:25:17.649Z,3.70
2023-02-11T12:27:48.312Z,3.60
2023-02-11T12:30:33.825Z,3.50
2023-02-11T12:33:19.403Z,3.50
2023-02-11T12:36:05.055Z,3.40
2023-02-11T12:38:34.839Z,3.30
2023-02-11T12:41:46.192Z,3.30
2023-02-11T12:44:21.847Z,3.30
2023-02-11T12:46:52.236Z,3.30
2023-02-11T12:49:36.974Z,3.30
2023-02-11T12:52:23.568Z,3.30
2023-02-11T12:55:00.357Z,3.30
2023-02-11T12:57:29.149Z,3.40
2023-02-11T13:00:07.706Z,3.30
2023-02-11T13:02:54.424Z,3.30
2023-02-11T13:05:29.498Z,3.30
2023-02-11T13:08:00.260Z,3.40
2023-02-11T13:10:30.140Z,3.20
2023-02-11T13:13:16.073Z,3.30
2023-02-11T13:15:43.782Z,3.30
2023-02-11T13:18:13.494Z,3.20
2023-02-11T13:21:18.633Z,3.10
2023-02-11T13:23:45.385Z,3.00
2023-02-11T13:26:24.803Z,3.00
2023-02-11T13:29:06.249Z,3.00
2023-02-11T13:31:33.147Z,3.00
2023-02-11T13:34:00.066Z,3.00
2023-02-11T13:36:28.313Z,3.00
2023-02-11T13:39:00.117Z,3.10
2023-02-11T13:41:28.868Z,3.10
2023-02-11T13:44:22.223Z,3.20
2023-02-11T13:46:57.323Z,3.20
2023-02-11T13:49:25.880Z,3.20
2023-02-11T13:51:53.445Z,3.00
2023-02-11T13:54:22.645Z,3.00
2023-02-11T13:57:09.749Z,3.00
2023-02-11T13:59:36.491Z,3.00
2023-02-11T14:02:39.403Z,2.80
2023-02-11T14:05:27.419Z,2.70
2023-02-11T14:08:28.270Z,2.70
2023-02-11T14:10:56.465Z,2.70
2023-02-11T14:13:27.403Z,2.50
2023-02-11T14:16:36.857Z,2.50
2023-02-11T14:19:04.600Z,2.40
2023-02-11T14:21:36.597Z,2.30
2023-02-11T14:24:04.943Z,2.20
2023-02-11T14:26:36.509Z,2.20
2023-02-11T14:29:08.796Z,2.20
2023-02-11T14:31:54.413Z,2.10
2023-02-11T14:34:30.062Z,2.20
2023-02-11T14:36:56.779Z,2.20
2023-02-11T14:39:32.632Z,2.20
2023-02-11T14:42:00.614Z,2.30
2023-02-11T14:44:30.022Z,2.20
2023-02-11T14:46:57.111Z,2.20
2023-02-11T14:49:31.327Z,2.30
2023-02-11T14:52:07.508Z,2.30
2023-02-11T14:54:34.865Z,2.30
2023-02-11T14:57:07.444Z,2.30
2023-02-11T14:59:34.213Z,2.30
2023-02-11T15:02:01.114Z,2.40
2023-02-11T15:04:32.388Z,2.40
2023-02-11T15:07:03.521Z,2.50
2023-02-11T15:09:36.527Z,2.50
2023-02-11T15:12:03.590Z,2.50
2023-02-11T15:14:31.930Z,2.50
2023-02-11T15:17:01.125Z,2.50
2023-02-11T15:19:32.365Z,2.40
2023-02-11T15:22:00.800Z,2.40
2023-02-11T15:24:29.213Z,2.40
2023-02-11T15:26:56.798Z,2.40
2023-02-11T15:29:27.016Z,2.40
2023-02-11T15:32:07.558Z,2.40
2023-02-11T15:34:34.552Z,2.40
2023-02-11T15:37:02.345Z,2.40
2023-02-11T15:39:34.840Z,2.40
2023-02-11T15:42:17.865Z,2.40
2023-02-11T15:44:45.025Z,2.30
2023-02-11T15:47:19.582Z,2.30
2023-02-11T15:49:47.211Z,2.20
2023-02-11T15:52:14.753Z,2.20
2023-02-11T15:54:46.164Z,2.20
2023-02-11T15:57:12.963Z,2.10
2023-02-11T15:59:40.745Z,2.10
2023-02-11T16:02:28.897Z,2.00
2023-02-11T16:04:57.327Z,2.10
2023-02-11T16:07:40.484Z,2.00
2023-02-11T16:10:17.592Z,2.10
2023-02-11T16:12:51.484Z,2.10
2023-02-11T16:15:33.418Z,2.00
2023-02-11T16:18:04.254Z,2.00
2023-02-11T16:20:31.098Z,2.10
2023-02-11T16:22:57.845Z,2.00
2023-02-11T16:25:24.652Z,2.00
2023-02-11T16:27:52.620Z,2.00
2023-02-11T16:30:28.506Z,2.00
2023-02-11T16:32:55.294Z,2.00
2023-02-11T16:35:22.090Z,1.80
2023-02-11T16:37:48.906Z,1.80
2023-02-11T16:40:15.643Z,1.70
2023-02-11T16:42:42.403Z,1.70
2023-02-11T16:45:09.605Z,1.70
2023-02-11T16:47:40.940Z,1.70
2023-02-11T16:50:12.166Z,1.60
2023-02-11T16:52:38.881Z,1.70
2023-02-11T16:55:06.164Z,1.70
2023-02-11T16:57:32.938Z,1.70
2023-02-11T16:59:59.736Z,1.60
2023-02-11T17:02:30.963Z,1.50
2023-02-11T17:05:01.645Z,1.50
2023-02-11T17:07:28.779Z,1.50
2023-02-11T17:09:56.159Z,1.50
2023-02-11T17:12:25.422Z,1.50
2023-02-11T17:14:52.662Z,1.50
2023-02-11T17:17:19.475Z,1.50
2023-02-11T17:19:47.868Z,1.40
2023-02-11T17:22:14.820Z,1.50
2023-02-11T17:24:41.585Z,1.50
2023-02-11T17:27:09.444Z,1.50
2023-02-11T17:29:36.765Z,1.40
2023-02-11T17:32:03.614Z,1.50
2023-02-11T17:34:32.383Z,1.50
2023-02-11T17:37:00.282Z,1.50
2023-02-11T17:39:27.634Z,1.50
2023-02-11T17:41:54.403Z,1.60
2023-02-11T17:44:21.157Z,1.60
2023-02-11T17:46:47.997Z,1.60
2023-02-11T17:49:15.837Z,1.60
2023-02-11T17:51:42.604Z,1.50
2023-02-11T17:54:13.802Z,1.60
2023-02-11T17:56:41.027Z,1.60
2023-02-11T17:59:08.667Z,1.70
2023-02-11T18:01:36.163Z,1.60
2023-02-11T18:04:03.529Z,1.60
2023-02-11T18:06:30.577Z,1.60
2023-02-11T18:08:59.752Z,1.60
2023-02-11T18:11:27.910Z,1.60
2023-02-11T18:13:54.950Z,1.60
2023-02-11T18:16:22.456Z,1.60
2023-02-11T18:18:49.845Z,1.70
2023-02-11T18:21:17.836Z,1.70
2023-02-11T18:23:44.982Z,1.80
2023-02-11T18:26:13.018Z,1.80
2023-02-11T18:28:39.941Z,1.80
2023-02-11T18:31:07.934Z,1.80
2023-02-11T18:33:35.327Z,1.80
2023-02-11T18:36:06.380Z,1.90
2023-02-11T18:38:33.298Z,1.90
2023-02-11T18:41:00.149Z,1.90
2023-02-11T18:43:31.623Z,1.80
2023-02-11T18:45:58.537Z,1.80
2023-02-11T18:48:28.694Z,1.70
2023-02-11T18:50:55.787Z,1.70
2023-02-11T18:53:22.958Z,1.70
2023-02-11T18:55:49.903Z,1.80
2023-02-11T18:58:16.823Z,1.70
2023-02-11T19:00:46.027Z,1.70
2023-02-11T19:03:12.772Z,1.70
2023-02-11T19:05:43.230Z,1.70
2023-02-11T19:08:10.178Z,1.70
2023-02-11T19:10:46.865Z,1.70
2023-02-11T19:13:14.322Z,1.70
2023-02-11T19:15:44.995Z,1.70
2023-02-11T19:18:12.479Z,1.70
2023-02-11T19:20:39.791Z,1.70
2023-02-11T19:23:06.748Z,1.70
2023-02-11T19:25:33.820Z,1.70
2023-02-11T19:28:00.938Z,1.70
2023-02-11T19:30:27.800Z,1.70
2023-02-11T19:32:57.217Z,1.70
2023-02-11T19:35:24.796Z,1.70
2023-02-11T19:37:51.935Z,1.60
2023-02-11T19:40:19.308Z,1.60
2023-02-11T19:42:46.028Z,1.70
2023-02-11T19:45:12.819Z,1.70
2023-02-11T19:47:39.579Z,1.70
2023-02-11T19:50:06.787Z,1.60
2023-02-11T19:52:33.607Z,1.60
2023-02-11T19:55:00.909Z,1.70
2023-02-11T19:57:27.660Z,1.70
2023-02-11T19:59:55.092Z,1.60
2023-02-11T20:02:21.933Z,1.70
2023-02-11T20:04:48.841Z,1.70
2023-02-11T20:07:15.655Z,1.70
2023-02-11T20:09:42.728Z,1.70
2023-02-11T20:12:10.088Z,1.70
2023-02-11T20:14:37.090Z,1.70
2023-02-11T20:17:04.062Z,1.70
2023-02-11T20:19:30.926Z,1.70
2023-02-11T20:21:57.910Z,1.70
2023-02-11T20:24:25.096Z,1.70
2023-02-11T20:26:55.512Z,1.70
2023-02-11T20:29:23.101Z,1.70
2023-02-11T20:31:50.452Z,1.80
2023-02-11T20:34:17.912Z,1.90
2023-02-11T20:36:51.970Z,1.80
2023-02-11T20:39:21.848Z,1.90
2023-02-11T20:41:49.243Z,1.90
2023-02-11T20:44:16.131Z,1.90
2023-02-11T20:46:45.969Z,1.90
2023-02-11T20:49:17.396Z,1.80
2023-02-11T20:51:44.362Z,1.80
2023-02-11T20:54:12.395Z,1.90
2023-02-11T20:56:39.148Z,1.90
2023-02-11T20:59:05.975Z,1.90
2023-02-11T21:01:34.528Z,1.80
2023-02-11T21:04:02.769Z,1.80
2023-02-11T21:06:37.406Z,1.80
2023-02-11T21:09:05.101Z,1.80
2023-02-11T21:11:31.992Z,1.80
2023-02-11T21:13:58.989Z,1.80
2023-02-11T21:16:26.125Z,1.80
2023-02-11T21:18:52.962Z,1.90
2023-02-11T21:21:20.114Z,1.90
2023-02-11T21:23:47.148Z,2.00
2023-02-11T21:26:14.217Z,2.00
2023-02-11T21:28:41.346Z,2.10
2023-02-11T21:31:08.280Z,2.00
2023-02-11T21:33:35.154Z,2.10
2023-02-11T21:36:02.872Z,2.00
2023-02-11T21:38:29.773Z,2.10
2023-02-11T21:41:02.148Z,2.00
2023-02-11T21:43:28.943Z,2.00
2023-02-11T21:45:56.012Z,2.00
2023-02-11T21:48:23.906Z,1.90
2023-02-11T21:50:50.623Z,1.90
2023-02-11T21:53:17.430Z,1.90
2023-02-11T21:55:44.244Z,1.90
2023-02-11T21:58:11.940Z,1.90
2023-02-11T22:00:38.920Z,1.90
2023-02-11T22:03:06.121Z,1.90
2023-02-11T22:05:32.926Z,1.90
2023-02-11T22:07:59.652Z,1.90
2023-02-11T22:10:26.383Z,1.80
2023-02-11T22:12:53.152Z,1.90
2023-02-11T22:15:19.887Z,1.90
2023-02-11T22:17:46.580Z,1.90
2023-02-11T22:20:13.384Z,1.90
2023-02-11T22:22:40.106Z,1.90
2023-02-11T22:25:07.035Z,1.90
2023-02-11T22:27:33.749Z,1.90
2023-02-11T22:30:00.463Z,1.90
2023-02-11T22:32:27.193Z,1.90
2023-02-11T22:34:54.057Z,1.90
2023-02-11T22:37:20.836Z,2.00
2023-02-11T22:39:47.744Z,2.00
2023-02-11T22:42:14.520Z,2.10
2023-02-11T22:44:41.242Z,2.00
2023-02-11T22:47:08.087Z,2.00
2023-02-11T22:49:35.672Z,1.90
2023-02-11T22:52:02.801Z,1.90
2023-02-11T22:54:29.612Z,1.90
2023-02-11T22:56:56.333Z,1.90
2023-02-11T22:59:23.099Z,1.90
2023-02-11T23:01:50.175Z,2.00
2023-02-11T23:04:19.231Z,2.00
2023-02-11T23:06:47.665Z,2.00
2023-02-11T23:09:14.662Z,1.90
2023-02-11T23:11:41.859Z,2.00
2023-02-11T23:14:10.185Z,2.00
2023-02-11T23:16:37.158Z,2.00
2023-02-11T23:19:05.561Z,2.00
2023-02-11T23:21:33.009Z,1.90
2023-02-11T23:24:01.188Z,2.00
2023-02-11T23:26:29.291Z,1.90
2023-02-11T23:28:57.357Z,2.00
2023-02-11T23:31:34.003Z,2.00
2023-02-11T23:34:01.412Z,2.00
2023-02-11T23:36:28.474Z,1.90
2023-02-11T23:38:55.272Z,1.90
2023-02-11T23:41:22.258Z,1.90
2023-02-11T23:43:52.782Z,1.90
2023-02-11T23:46:19.816Z,1.90
2023-02-11T23:48:46.560Z,1.90
2023-02-11T23:51:13.636Z,1.90
2023-02-11T23:53:40.701Z,1.90
2023-02-11T23:56:08.524Z,1.80
2023-02-11T23:58:35.923Z,1.80
